Terminal Aerodrome Forecast
Issued by NWS Austin/San Antonio, TX

Home | Current Version | Previous Version | Text Only | Print | Product List | Glossary On
Versions: 1 2 3 4 5 6 7 8 9 10 11 12 13 14 15 16 17 18 19 20 21 22 23 24
312
FTUS44 KEWX 271854 AAB
TAFDRT
TAF AMD
KDRT 271854Z 2719/2818 14005KT P6SM VCTS FEW026 SCT040CB BKN150
     FM280000 12009KT P6SM FEW060 SCT150
     FM281300 11006KT P6SM BKN025
     FM281700 13008KT P6SM BKN050=

USA.gov is the U.S. government's official web portal to all federal, state and local government web resources and services.